sensor_id;sensor_type;location;lat;lon;timestamp;noise_LAeq;noise_LA_min;noise_LA_max;noise_LA01;noise_LA95
73638;Laerm;53743;51.100;5.874;2024-02-26T00:00:34;35.65;32.55;45.64;;
73638;Laerm;53743;51.100;5.874;2024-02-26T00:01:35;36.89;32.54;44.03;;
73638;Laerm;53743;51.100;5.874;2024-02-26T00:02:38;36.73;32.97;53.47;;
73638;Laerm;53743;51.100;5.874;2024-02-26T00:03:39;38.62;32.41;50.59;;
73638;Laerm;53743;51.100;5.874;2024-02-26T00:04:43;40.16;32.92;54.93;;
73638;Laerm;53743;51.100;5.874;2024-02-26T00:05:45;39.91;32.89;52.68;;
73638;Laerm;53743;51.100;5.874;2024-02-26T00:06:47;37.62;32.55;52.31;;
73638;Laerm;53743;51.100;5.874;2024-02-26T00:07:51;35.98;32.31;53.31;;
73638;Laerm;53743;51.100;5.874;2024-02-26T00:08:52;45.33;32.68;64.26;;
73638;Laerm;53743;51.100;5.874;2024-02-26T00:09:54;38.35;32.70;53.57;;
73638;Laerm;53743;51.100;5.874;2024-02-26T00:10:54;36.30;32.69;44.58;;
73638;Laerm;53743;51.100;5.874;2024-02-26T00:11:57;36.42;32.78;50.47;;
73638;Laerm;53743;51.100;5.874;2024-02-26T00:12:58;36.13;32.71;42.11;;
73638;Laerm;53743;51.100;5.874;2024-02-26T00:14:00;40.82;33.08;54.23;;
73638;Laerm;53743;51.100;5.874;2024-02-26T00:15:01;38.74;32.87;45.02;;
73638;Laerm;53743;51.100;5.874;2024-02-26T00:16:04;39.08;32.98;44.95;;
73638;Laerm;53743;51.100;5.874;2024-02-26T00:17:05;38.67;34.60;43.04;;
73638;Laerm;53743;51.100;5.874;2024-02-26T00:18:07;38.32;33.05;45.95;;
73638;Laerm;53743;51.100;5.874;2024-02-26T00:19:08;41.54;34.04;55.02;;
73638;Laerm;53743;51.100;5.874;2024-02-26T00:20:11;38.33;33.36;45.48;;
73638;Laerm;53743;51.100;5.874;2024-02-26T00:21:13;37.83;32.57;45.30;;
73638;Laerm;53743;51.100;5.874;2024-02-26T00:22:15;37.73;33.03;44.75;;
73638;Laerm;53743;51.100;5.874;2024-02-26T00:23:16;39.32;32.78;47.38;;
73638;Laerm;53743;51.100;5.874;2024-02-26T00:24:18;38.68;32.62;46.34;;
73638;Laerm;53743;51.100;5.874;2024-02-26T00:25:20;38.95;32.89;44.71;;
73638;Laerm;53743;51.100;5.874;2024-02-26T00:26:22;42.38;32.28;56.27;;
73638;Laerm;53743;51.100;5.874;2024-02-26T00:27:23;38.81;32.25;46.09;;
73638;Laerm;53743;51.100;5.874;2024-02-26T00:28:25;41.04;33.10;54.16;;
73638;Laerm;53743;51.100;5.874;2024-02-26T00:29:26;38.23;32.48;47.90;;
73638;Laerm;53743;51.100;5.874;2024-02-26T00:30:26;40.94;32.61;54.56;;
73638;Laerm;53743;51.100;5.874;2024-02-26T00:31:28;38.56;32.96;45.29;;
73638;Laerm;53743;51.100;5.874;2024-02-26T00:32:29;39.34;32.54;49.48;;
73638;Laerm;53743;51.100;5.874;2024-02-26T00:33:31;38.59;32.65;46.15;;
73638;Laerm;53743;51.100;5.874;2024-02-26T00:34:32;38.57;32.90;48.58;;
73638;Laerm;53743;51.100;5.874;2024-02-26T00:35:34;39.11;32.47;46.64;;
73638;Laerm;53743;51.100;5.874;2024-02-26T00:36:37;37.94;32.70;49.15;;
73638;Laerm;53743;51.100;5.874;2024-02-26T00:37:39;37.99;33.33;46.61;;
73638;Laerm;53743;51.100;5.874;2024-02-26T00:38:40;38.26;32.93;45.96;;
73638;Laerm;53743;51.100;5.874;2024-02-26T00:39:43;37.39;32.71;45.74;;
73638;Laerm;53743;51.100;5.874;2024-02-26T00:40:45;37.04;32.34;42.91;;
73638;Laerm;53743;51.100;5.874;2024-02-26T00:41:47;37.99;32.80;47.76;;
73638;Laerm;53743;51.100;5.874;2024-02-26T00:42:48;37.51;33.01;42.48;;
73638;Laerm;53743;51.100;5.874;2024-02-26T00:43:50;37.42;32.49;43.22;;
73638;Laerm;53743;51.100;5.874;2024-02-26T00:44:51;42.10;32.92;55.89;;
73638;Laerm;53743;51.100;5.874;2024-02-26T00:45:52;37.89;32.80;46.86;;
73638;Laerm;53743;51.100;5.874;2024-02-26T00:46:54;38.01;32.83;45.20;;
73638;Laerm;53743;51.100;5.874;2024-02-26T00:47:55;37.76;33.01;43.22;;
73638;Laerm;53743;51.100;5.874;2024-02-26T00:48:57;37.98;32.67;45.15;;
73638;Laerm;53743;51.100;5.874;2024-02-26T00:49:58;38.04;32.73;44.29;;
73638;Laerm;53743;51.100;5.874;2024-02-26T00:51:00;38.32;32.66;45.51;;
73638;Laerm;53743;51.100;5.874;2024-02-26T00:52:03;38.34;32.85;44.35;;
73638;Laerm;53743;51.100;5.874;2024-02-26T00:53:06;37.13;32.58;44.94;;
73638;Laerm;53743;51.100;5.874;2024-02-26T00:54:06;38.64;32.36;47.09;;
73638;Laerm;53743;51.100;5.874;2024-02-26T00:55:09;39.32;32.99;45.45;;
73638;Laerm;53743;51.100;5.874;2024-02-26T00:56:10;39.28;33.05;47.22;;
73638;Laerm;53743;51.100;5.874;2024-02-26T00:57:12;38.44;32.71;45.54;;
73638;Laerm;53743;51.100;5.874;2024-02-26T00:58:13;38.65;32.74;45.51;;
73638;Laerm;53743;51.100;5.874;2024-02-26T00:59:14;38.40;32.55;45.63;;
73638;Laerm;53743;51.100;5.874;2024-02-26T01:00:17;39.11;32.55;45.64;;
73638;Laerm;53743;51.100;5.874;2024-02-26T01:01:18;39.32;32.28;48.58;;
73638;Laerm;53743;51.100;5.874;2024-02-26T01:02:20;39.30;32.81;47.67;;
73638;Laerm;53743;51.100;5.874;2024-02-26T01:03:21;38.64;32.87;45.47;;
73638;Laerm;53743;51.100;5.874;2024-02-26T01:04:23;38.98;32.45;47.39;;
73638;Laerm;53743;51.100;5.874;2024-02-26T01:05:24;38.75;33.18;48.57;;
73638;Laerm;53743;51.100;5.874;2024-02-26T01:06:26;38.86;32.85;44.80;;
73638;Laerm;53743;51.100;5.874;2024-02-26T01:07:28;38.33;32.94;44.11;;
73638;Laerm;53743;51.100;5.874;2024-02-26T01:08:34;39.71;32.95;45.63;;
73638;Laerm;53743;51.100;5.874;2024-02-26T01:09:36;39.31;33.13;44.91;;
73638;Laerm;53743;51.100;5.874;2024-02-26T01:10:38;39.15;32.95;44.20;;
73638;Laerm;53743;51.100;5.874;2024-02-26T01:11:39;39.70;32.87;45.64;;
73638;Laerm;53743;51.100;5.874;2024-02-26T01:12:41;39.50;32.73;46.56;;
73638;Laerm;53743;51.100;5.874;2024-02-26T01:13:42;39.01;33.46;46.15;;
73638;Laerm;53743;51.100;5.874;2024-02-26T01:14:44;38.75;33.22;44.45;;
73638;Laerm;53743;51.100;5.874;2024-02-26T01:15:45;45.23;32.67;58.67;;
73638;Laerm;53743;51.100;5.874;2024-02-26T01:16:47;41.89;32.85;49.58;;
73638;Laerm;53743;51.100;5.874;2024-02-26T01:17:48;42.41;32.90;52.84;;
73638;Laerm;53743;51.100;5.874;2024-02-26T01:18:49;39.29;32.27;51.92;;
73638;Laerm;53743;51.100;5.874;2024-02-26T01:19:51;38.88;33.41;47.61;;
73638;Laerm;53743;51.100;5.874;2024-02-26T01:20:52;41.22;32.97;50.11;;
73638;Laerm;53743;51.100;5.874;2024-02-26T01:21:55;40.20;32.14;48.20;;
73638;Laerm;53743;51.100;5.874;2024-02-26T01:22:57;40.93;32.90;50.38;;
73638;Laerm;53743;51.100;5.874;2024-02-26T01:23:59;43.29;33.06;52.18;;
73638;Laerm;53743;51.100;5.874;2024-02-26T01:25:00;42.56;32.94;55.90;;
73638;Laerm;53743;51.100;5.874;2024-02-26T01:26:02;41.80;33.15;50.38;;
73638;Laerm;53743;51.100;5.874;2024-02-26T01:27:04;41.91;32.92;49.72;;
73638;Laerm;53743;51.100;5.874;2024-02-26T01:28:07;41.17;33.02;47.50;;
73638;Laerm;53743;51.100;5.874;2024-02-26T01:29:08;41.13;32.93;57.40;;
73638;Laerm;53743;51.100;5.874;2024-02-26T01:30:10;41.73;33.15;55.19;;
73638;Laerm;53743;51.100;5.874;2024-02-26T01:31:12;39.13;32.30;47.62;;
73638;Laerm;53743;51.100;5.874;2024-02-26T01:32:13;40.07;33.28;47.47;;
73638;Laerm;53743;51.100;5.874;2024-02-26T01:33:15;40.27;33.00;46.59;;
73638;Laerm;53743;51.100;5.874;2024-02-26T01:34:16;40.35;32.88;47.53;;
73638;Laerm;53743;51.100;5.874;2024-02-26T01:35:19;40.44;32.79;47.08;;
73638;Laerm;53743;51.100;5.874;2024-02-26T01:36:20;40.66;32.91;51.27;;
73638;Laerm;53743;51.100;5.874;2024-02-26T01:37:23;39.69;32.83;48.88;;
73638;Laerm;53743;51.100;5.874;2024-02-26T01:38:25;39.59;32.79;46.40;;
73638;Laerm;53743;51.100;5.874;2024-02-26T01:39:26;38.89;33.93;44.43;;
73638;Laerm;53743;51.100;5.874;2024-02-26T01:40:29;40.28;33.12;49.70;;
73638;Laerm;53743;51.100;5.874;2024-02-26T01:41:30;40.77;33.05;50.04;;
73638;Laerm;53743;51.100;5.874;2024-02-26T01:42:32;40.65;33.27;49.58;;
73638;Laerm;53743;51.100;5.874;2024-02-26T01:43:33;41.50;33.89;49.11;;
73638;Laerm;53743;51.100;5.874;2024-02-26T01:44:35;39.96;33.50;46.94;;
73638;Laerm;53743;51.100;5.874;2024-02-26T01:45:36;40.46;32.86;53.45;;
73638;Laerm;53743;51.100;5.874;2024-02-26T01:46:39;50.60;33.74;64.63;;
73638;Laerm;53743;51.100;5.874;2024-02-26T01:47:40;50.84;32.55;63.79;;
73638;Laerm;53743;51.100;5.874;2024-02-26T01:48:44;53.89;33.59;65.98;;
73638;Laerm;53743;51.100;5.874;2024-02-26T01:49:47;53.93;33.85;67.67;;
73638;Laerm;53743;51.100;5.874;2024-02-26T01:50:49;49.01;34.29;61.73;;
73638;Laerm;53743;51.100;5.874;2024-02-26T01:51:50;52.96;33.79;63.40;;
73638;Laerm;53743;51.100;5.874;2024-02-26T01:52:55;51.61;34.12;67.32;;
73638;Laerm;53743;51.100;5.874;2024-02-26T01:53:59;52.91;33.35;65.22;;
73638;Laerm;53743;51.100;5.874;2024-02-26T01:55:01;50.72;33.65;61.88;;
73638;Laerm;53743;51.100;5.874;2024-02-26T01:56:04;53.89;34.10;65.41;;
73638;Laerm;53743;51.100;5.874;2024-02-26T01:57:08;51.12;34.92;68.31;;
73638;Laerm;53743;51.100;5.874;2024-02-26T01:58:10;48.33;36.13;62.35;;
73638;Laerm;53743;51.100;5.874;2024-02-26T01:59:13;50.05;35.19;63.93;;
73638;Laerm;53743;51.100;5.874;2024-02-26T02:00:17;50.07;34.65;61.36;;
73638;Laerm;53743;51.100;5.874;2024-02-26T02:01:22;48.61;36.12;60.84;;
73638;Laerm;53743;51.100;5.874;2024-02-26T02:02:27;45.93;36.17;59.41;;
73638;Laerm;53743;51.100;5.874;2024-02-26T02:03:29;49.41;36.79;63.39;;
73638;Laerm;53743;51.100;5.874;2024-02-26T02:04:32;52.61;33.85;65.07;;
73638;Laerm;53743;51.100;5.874;2024-02-26T02:05:34;52.84;33.26;63.98;;
73638;Laerm;53743;51.100;5.874;2024-02-26T02:06:45;52.24;33.62;64.55;;
73638;Laerm;53743;51.100;5.874;2024-02-26T02:07:47;51.76;33.08;62.53;;
73638;Laerm;53743;51.100;5.874;2024-02-26T02:08:49;51.77;33.41;62.40;;
73638;Laerm;53743;51.100;5.874;2024-02-26T02:09:53;50.98;33.27;61.51;;
73638;Laerm;53743;51.100;5.874;2024-02-26T02:10:56;51.95;33.36;61.29;;
73638;Laerm;53743;51.100;5.874;2024-02-26T02:11:59;50.78;35.98;59.17;;
73638;Laerm;53743;51.100;5.874;2024-02-26T02:13:01;50.83;35.74;60.44;;
73638;Laerm;53743;51.100;5.874;2024-02-26T02:14:02;50.45;37.21;59.77;;
73638;Laerm;53743;51.100;5.874;2024-02-26T02:15:05;49.64;36.07;59.48;;
73638;Laerm;53743;51.100;5.874;2024-02-26T02:16:06;51.35;34.77;61.65;;
73638;Laerm;53743;51.100;5.874;2024-02-26T02:17:07;52.24;34.01;62.90;;
73638;Laerm;53743;51.100;5.874;2024-02-26T02:18:10;51.66;35.77;59.29;;
73638;Laerm;53743;51.100;5.874;2024-02-26T02:19:11;50.96;32.94;63.87;;
73638;Laerm;53743;51.100;5.874;2024-02-26T02:20:17;52.03;32.89;63.08;;
73638;Laerm;53743;51.100;5.874;2024-02-26T02:21:19;49.82;33.47;65.03;;
73638;Laerm;53743;51.100;5.874;2024-02-26T02:22:21;48.19;34.46;58.55;;
73638;Laerm;53743;51.100;5.874;2024-02-26T02:23:23;47.77;34.43;59.04;;
73638;Laerm;53743;51.100;5.874;2024-02-26T02:24:24;49.95;33.48;63.16;;
73638;Laerm;53743;51.100;5.874;2024-02-26T02:25:25;51.39;33.20;63.77;;
73638;Laerm;53743;51.100;5.874;2024-02-26T02:26:27;47.50;33.78;56.27;;
73638;Laerm;53743;51.100;5.874;2024-02-26T02:27:30;48.46;33.72;56.05;;
73638;Laerm;53743;51.100;5.874;2024-02-26T02:28:32;49.04;33.72;61.58;;
73638;Laerm;53743;51.100;5.874;2024-02-26T02:29:33;52.27;33.13;63.63;;
73638;Laerm;53743;51.100;5.874;2024-02-26T02:30:36;49.28;34.01;59.72;;
73638;Laerm;53743;51.100;5.874;2024-02-26T02:31:39;48.54;35.44;63.00;;
73638;Laerm;53743;51.100;5.874;2024-02-26T02:32:41;48.83;34.70;59.92;;
73638;Laerm;53743;51.100;5.874;2024-02-26T02:33:44;50.85;35.06;61.95;;
73638;Laerm;53743;51.100;5.874;2024-02-26T02:34:46;51.36;32.64;61.12;;
73638;Laerm;53743;51.100;5.874;2024-02-26T02:35:48;51.22;33.59;62.67;;
73638;Laerm;53743;51.100;5.874;2024-02-26T02:36:54;50.52;34.22;59.07;;
73638;Laerm;53743;51.100;5.874;2024-02-26T02:37:57;50.45;33.58;59.55;;
73638;Laerm;53743;51.100;5.874;2024-02-26T02:38:59;49.31;33.92;59.41;;
73638;Laerm;53743;51.100;5.874;2024-02-26T02:40:00;49.42;35.87;61.82;;
73638;Laerm;53743;51.100;5.874;2024-02-26T02:41:02;50.47;32.66;63.43;;
73638;Laerm;53743;51.100;5.874;2024-02-26T02:42:04;54.62;33.40;67.05;;
73638;Laerm;53743;51.100;5.874;2024-02-26T02:43:06;52.46;33.05;65.64;;
73638;Laerm;53743;51.100;5.874;2024-02-26T02:44:07;49.50;32.86;60.57;;
73638;Laerm;53743;51.100;5.874;2024-02-26T02:45:09;49.77;33.22;61.85;;
73638;Laerm;53743;51.100;5.874;2024-02-26T02:46:10;48.09;33.78;60.00;;
73638;Laerm;53743;51.100;5.874;2024-02-26T02:47:13;51.64;33.20;63.21;;
73638;Laerm;53743;51.100;5.874;2024-02-26T02:48:14;50.14;33.19;61.09;;
73638;Laerm;53743;51.100;5.874;2024-02-26T02:49:16;51.65;33.29;62.86;;
73638;Laerm;53743;51.100;5.874;2024-02-26T02:50:17;52.38;33.29;62.96;;
73638;Laerm;53743;51.100;5.874;2024-02-26T02:51:19;52.40;32.95;64.01;;
73638;Laerm;53743;51.100;5.874;2024-02-26T02:52:21;51.46;33.08;62.16;;
73638;Laerm;53743;51.100;5.874;2024-02-26T02:53:23;50.02;33.56;61.10;;
73638;Laerm;53743;51.100;5.874;2024-02-26T02:54:24;54.46;33.54;63.60;;
73638;Laerm;53743;51.100;5.874;2024-02-26T02:55:25;54.05;33.05;63.70;;
73638;Laerm;53743;51.100;5.874;2024-02-26T02:56:27;54.88;33.13;63.70;;
73638;Laerm;53743;51.100;5.874;2024-02-26T02:57:30;52.31;34.13;63.50;;
73638;Laerm;53743;51.100;5.874;2024-02-26T02:58:32;50.87;33.65;62.22;;
73638;Laerm;53743;51.100;5.874;2024-02-26T02:59:33;49.78;35.78;61.06;;
73638;Laerm;53743;51.100;5.874;2024-02-26T03:00:35;48.44;33.81;56.65;;
73638;Laerm;53743;51.100;5.874;2024-02-26T03:01:36;49.43;36.02;58.47;;
73638;Laerm;53743;51.100;5.874;2024-02-26T03:02:38;49.13;33.03;60.99;;
73638;Laerm;53743;51.100;5.874;2024-02-26T03:03:39;49.28;34.62;61.14;;
73638;Laerm;53743;51.100;5.874;2024-02-26T03:04:41;49.99;34.32;63.60;;
73638;Laerm;53743;51.100;5.874;2024-02-26T03:05:42;49.22;33.37;62.15;;
73638;Laerm;53743;51.100;5.874;2024-02-26T03:06:44;49.75;34.00;62.41;;
73638;Laerm;53743;51.100;5.874;2024-02-26T03:07:46;49.60;33.85;61.76;;
73638;Laerm;53743;51.100;5.874;2024-02-26T03:08:48;51.60;33.62;64.45;;
73638;Laerm;53743;51.100;5.874;2024-02-26T03:09:49;53.43;33.98;64.84;;
73638;Laerm;53743;51.100;5.874;2024-02-26T03:10:51;54.14;33.17;66.06;;
73638;Laerm;53743;51.100;5.874;2024-02-26T03:11:52;51.25;33.92;63.79;;
73638;Laerm;53743;51.100;5.874;2024-02-26T03:12:54;51.75;33.52;61.76;;
73638;Laerm;53743;51.100;5.874;2024-02-26T03:13:57;53.38;33.68;62.86;;
73638;Laerm;53743;51.100;5.874;2024-02-26T03:14:59;53.26;33.64;62.92;;
73638;Laerm;53743;51.100;5.874;2024-02-26T03:16:05;51.77;33.77;63.13;;
73638;Laerm;53743;51.100;5.874;2024-02-26T03:17:07;54.93;33.55;65.35;;
73638;Laerm;53743;51.100;5.874;2024-02-26T03:18:08;56.27;32.99;68.01;;
73638;Laerm;53743;51.100;5.874;2024-02-26T03:19:10;50.25;33.27;60.08;;
73638;Laerm;53743;51.100;5.874;2024-02-26T03:20:11;52.26;33.28;62.66;;
73638;Laerm;53743;51.100;5.874;2024-02-26T03:21:13;52.81;33.37;62.16;;
73638;Laerm;53743;51.100;5.874;2024-02-26T03:22:14;52.83;33.64;62.81;;
73638;Laerm;53743;51.100;5.874;2024-02-26T03:23:18;51.47;33.38;60.77;;
73638;Laerm;53743;51.100;5.874;2024-02-26T03:24:19;53.28;33.57;62.21;;
73638;Laerm;53743;51.100;5.874;2024-02-26T03:25:20;51.53;33.92;60.24;;
73638;Laerm;53743;51.100;5.874;2024-02-26T03:26:21;51.82;33.42;60.32;;
73638;Laerm;53743;51.100;5.874;2024-02-26T03:27:22;51.01;33.89;61.95;;
73638;Laerm;53743;51.100;5.874;2024-02-26T03:28:24;52.03;33.59;61.68;;
73638;Laerm;53743;51.100;5.874;2024-02-26T03:29:25;53.63;33.70;63.34;;
73638;Laerm;53743;51.100;5.874;2024-02-26T03:30:27;52.12;32.67;64.18;;
73638;Laerm;53743;51.100;5.874;2024-02-26T03:31:28;51.54;33.55;61.97;;
73638;Laerm;53743;51.100;5.874;2024-02-26T03:32:30;52.50;33.58;60.79;;
73638;Laerm;53743;51.100;5.874;2024-02-26T03:33:31;50.60;33.47;59.21;;
73638;Laerm;53743;51.100;5.874;2024-02-26T03:34:33;50.84;34.19;60.04;;
73638;Laerm;53743;51.100;5.874;2024-02-26T03:35:35;50.09;33.38;61.68;;
73638;Laerm;53743;51.100;5.874;2024-02-26T03:36:36;51.29;32.81;62.03;;
73638;Laerm;53743;51.100;5.874;2024-02-26T03:37:37;51.97;33.34;61.34;;
73638;Laerm;53743;51.100;5.874;2024-02-26T03:38:41;52.96;33.68;63.88;;
73638;Laerm;53743;51.100;5.874;2024-02-26T03:39:42;54.42;33.62;63.74;;
73638;Laerm;53743;51.100;5.874;2024-02-26T03:40:43;53.69;33.16;62.52;;
73638;Laerm;53743;51.100;5.874;2024-02-26T03:41:45;52.50;33.47;62.37;;
73638;Laerm;53743;51.100;5.874;2024-02-26T03:42:46;52.69;33.55;61.31;;
73638;Laerm;53743;51.100;5.874;2024-02-26T03:43:48;52.83;32.83;67.18;;
73638;Laerm;53743;51.100;5.874;2024-02-26T03:44:49;38.25;32.49;50.10;;
73638;Laerm;53743;51.100;5.874;2024-02-26T03:45:50;34.10;32.58;47.07;;
73638;Laerm;53743;51.100;5.874;2024-02-26T03:46:52;40.68;33.04;52.91;;
73638;Laerm;53743;51.100;5.874;2024-02-26T03:47:52;34.22;32.88;43.59;;
73638;Laerm;53743;51.100;5.874;2024-02-26T03:48:54;34.02;32.55;39.80;;
73638;Laerm;53743;51.100;5.874;2024-02-26T03:49:55;34.21;32.77;45.79;;
73638;Laerm;53743;51.100;5.874;2024-02-26T03:51:00;34.17;32.33;43.55;;
73638;Laerm;53743;51.100;5.874;2024-02-26T03:52:01;43.87;32.81;59.83;;
73638;Laerm;53743;51.100;5.874;2024-02-26T03:53:02;34.45;32.63;55.39;;
73638;Laerm;53743;51.100;5.874;2024-02-26T03:54:05;40.35;32.26;57.89;;
73638;Laerm;53743;51.100;5.874;2024-02-26T03:55:07;34.25;32.74;48.60;;
73638;Laerm;53743;51.100;5.874;2024-02-26T03:56:11;34.15;32.56;41.79;;
73638;Laerm;53743;51.100;5.874;2024-02-26T03:57:12;34.09;32.16;41.64;;
73638;Laerm;53743;51.100;5.874;2024-02-26T03:58:14;34.12;32.61;44.47;;
73638;Laerm;53743;51.100;5.874;2024-02-26T03:59:16;34.18;32.65;47.59;;
73638;Laerm;53743;51.100;5.874;2024-02-26T04:00:19;38.90;32.79;52.20;;
73638;Laerm;53743;51.100;5.874;2024-02-26T04:01:20;34.13;32.68;41.34;;
73638;Laerm;53743;51.100;5.874;2024-02-26T04:02:22;36.14;32.76;46.41;;
73638;Laerm;53743;51.100;5.874;2024-02-26T04:03:23;34.17;32.16;47.46;;
73638;Laerm;53743;51.100;5.874;2024-02-26T04:04:26;34.15;32.50;43.86;;
73638;Laerm;53743;51.100;5.874;2024-02-26T04:05:27;34.18;32.36;43.30;;
73638;Laerm;53743;51.100;5.874;2024-02-26T04:06:29;34.03;32.67;41.14;;
73638;Laerm;53743;51.100;5.874;2024-02-26T04:07:29;34.01;32.79;46.77;;
73638;Laerm;53743;51.100;5.874;2024-02-26T04:08:31;33.98;32.37;45.20;;
73638;Laerm;53743;51.100;5.874;2024-02-26T04:09:34;36.69;32.32;47.73;;
73638;Laerm;53743;51.100;5.874;2024-02-26T04:10:36;41.20;32.59;57.33;;
73638;Laerm;53743;51.100;5.874;2024-02-26T04:11:39;34.00;32.72;38.84;;
73638;Laerm;53743;51.100;5.874;2024-02-26T04:12:42;34.09;32.63;40.45;;
73638;Laerm;53743;51.100;5.874;2024-02-26T04:13:44;35.96;32.63;48.48;;
73638;Laerm;53743;51.100;5.874;2024-02-26T04:14:49;39.23;32.55;54.19;;
73638;Laerm;53743;51.100;5.874;2024-02-26T04:15:50;34.03;32.61;40.57;;
73638;Laerm;53743;51.100;5.874;2024-02-26T04:16:52;34.04;32.65;39.36;;
73638;Laerm;53743;51.100;5.874;2024-02-26T04:17:55;34.15;32.65;42.01;;
73638;Laerm;53743;51.100;5.874;2024-02-26T04:18:57;34.07;32.42;38.51;;
73638;Laerm;53743;51.100;5.874;2024-02-26T04:19:58;34.10;32.65;38.00;;
73638;Laerm;53743;51.100;5.874;2024-02-26T04:20:59;34.11;32.66;38.36;;
73638;Laerm;53743;51.100;5.874;2024-02-26T04:22:02;34.12;32.60;46.37;;
73638;Laerm;53743;51.100;5.874;2024-02-26T04:23:03;34.05;32.32;41.65;;
73638;Laerm;53743;51.100;5.874;2024-02-26T04:24:05;38.73;32.62;53.96;;
73638;Laerm;53743;51.100;5.874;2024-02-26T04:25:08;42.48;32.71;56.04;;
73638;Laerm;53743;51.100;5.874;2024-02-26T04:26:11;41.00;32.78;52.51;;
73638;Laerm;53743;51.100;5.874;2024-02-26T04:27:12;34.13;32.66;48.63;;
73638;Laerm;53743;51.100;5.874;2024-02-26T04:28:14;33.97;32.38;43.56;;
73638;Laerm;53743;51.100;5.874;2024-02-26T04:29:15;37.99;32.53;51.21;;
73638;Laerm;53743;51.100;5.874;2024-02-26T04:30:17;41.45;32.78;54.05;;
73638;Laerm;53743;51.100;5.874;2024-02-26T04:31:18;33.92;32.49;37.23;;
73638;Laerm;53743;51.100;5.874;2024-02-26T04:32:20;38.56;32.62;52.18;;
73638;Laerm;53743;51.100;5.874;2024-02-26T04:33:21;33.92;32.66;36.26;;
73638;Laerm;53743;51.100;5.874;2024-02-26T04:34:23;33.91;32.23;35.44;;
73638;Laerm;53743;51.100;5.874;2024-02-26T04:35:24;33.99;32.55;37.20;;
73638;Laerm;53743;51.100;5.874;2024-02-26T04:36:25;33.94;32.60;37.12;;
73638;Laerm;53743;51.100;5.874;2024-02-26T04:37:27;37.43;32.23;49.75;;
73638;Laerm;53743;51.100;5.874;2024-02-26T04:38:31;39.81;32.59;58.25;;
73638;Laerm;53743;51.100;5.874;2024-02-26T04:39:33;42.19;32.86;55.87;;
73638;Laerm;53743;51.100;5.874;2024-02-26T04:40:35;38.85;32.78;53.16;;
73638;Laerm;53743;51.100;5.874;2024-02-26T04:41:37;34.06;32.63;40.84;;
73638;Laerm;53743;51.100;5.874;2024-02-26T04:42:38;34.30;31.88;41.91;;
73638;Laerm;53743;51.100;5.874;2024-02-26T04:43:40;40.32;32.61;53.80;;
73638;Laerm;53743;51.100;5.874;2024-02-26T04:44:42;34.03;32.53;36.02;;
73638;Laerm;53743;51.100;5.874;2024-02-26T04:45:44;34.33;32.59;42.91;;
73638;Laerm;53743;51.100;5.874;2024-02-26T04:46:45;43.60;32.75;57.50;;
73638;Laerm;53743;51.100;5.874;2024-02-26T04:47:47;34.03;32.57;36.92;;
73638;Laerm;53743;51.100;5.874;2024-02-26T04:48:48;34.19;32.34;37.70;;
73638;Laerm;53743;51.100;5.874;2024-02-26T04:49:50;39.42;32.36;52.39;;
73638;Laerm;53743;51.100;5.874;2024-02-26T04:50:51;42.26;32.85;54.30;;
73638;Laerm;53743;51.100;5.874;2024-02-26T04:51:53;38.25;32.17;52.83;;
73638;Laerm;53743;51.100;5.874;2024-02-26T04:52:54;39.78;32.99;50.75;;
73638;Laerm;53743;51.100;5.874;2024-02-26T04:53:56;34.20;32.73;38.17;;
73638;Laerm;53743;51.100;5.874;2024-02-26T04:54:57;34.11;32.57;38.70;;
73638;Laerm;53743;51.100;5.874;2024-02-26T04:56:02;37.05;32.41;49.54;;
73638;Laerm;53743;51.100;5.874;2024-02-26T04:57:04;34.56;32.40;44.98;;
73638;Laerm;53743;51.100;5.874;2024-02-26T04:58:06;35.69;32.38;47.37;;
73638;Laerm;53743;51.100;5.874;2024-02-26T04:59:07;39.83;32.70;54.57;;
73638;Laerm;53743;51.100;5.874;2024-02-26T05:00:11;33.96;32.54;38.11;;
73638;Laerm;53743;51.100;5.874;2024-02-26T05:01:12;33.93;32.57;37.79;;
73638;Laerm;53743;51.100;5.874;2024-02-26T05:02:14;33.94;32.39;36.37;;
73638;Laerm;53743;51.100;5.874;2024-02-26T05:03:15;34.01;32.72;40.56;;
73638;Laerm;53743;51.100;5.874;2024-02-26T05:04:16;42.68;32.63;59.11;;
73638;Laerm;53743;51.100;5.874;2024-02-26T05:05:18;38.00;32.96;51.32;;
73638;Laerm;53743;51.100;5.874;2024-02-26T05:06:19;41.14;32.83;54.87;;
73638;Laerm;53743;51.100;5.874;2024-02-26T05:07:21;40.41;32.61;51.56;;
73638;Laerm;53743;51.100;5.874;2024-02-26T05:08:22;37.64;32.69;50.01;;
73638;Laerm;53743;51.100;5.874;2024-02-26T05:09:24;34.06;32.48;37.86;;
73638;Laerm;53743;51.100;5.874;2024-02-26T05:10:25;34.03;32.52;36.26;;
73638;Laerm;53743;51.100;5.874;2024-02-26T05:11:29;41.58;32.75;55.80;;
73638;Laerm;53743;51.100;5.874;2024-02-26T05:12:30;39.25;32.61;50.16;;
73638;Laerm;53743;51.100;5.874;2024-02-26T05:13:32;44.34;33.01;58.67;;
73638;Laerm;53743;51.100;5.874;2024-02-26T05:14:33;34.91;32.80;46.21;;
73638;Laerm;53743;51.100;5.874;2024-02-26T05:15:35;42.27;32.82;54.40;;
73638;Laerm;53743;51.100;5.874;2024-02-26T05:16:36;41.08;32.76;53.43;;
73638;Laerm;53743;51.100;5.874;2024-02-26T05:17:38;34.02;32.52;35.85;;
73638;Laerm;53743;51.100;5.874;2024-02-26T05:18:39;46.87;32.83;59.13;;
73638;Laerm;53743;51.100;5.874;2024-02-26T05:19:41;42.65;32.93;55.48;;
73638;Laerm;53743;51.100;5.874;2024-02-26T05:20:42;34.64;32.51;44.08;;
73638;Laerm;53743;51.100;5.874;2024-02-26T05:21:43;42.62;32.49;56.57;;
73638;Laerm;53743;51.100;5.874;2024-02-26T05:22:45;43.57;32.50;58.07;;
73638;Laerm;53743;51.100;5.874;2024-02-26T05:23:46;39.24;32.76;51.73;;
73638;Laerm;53743;51.100;5.874;2024-02-26T05:24:48;35.83;32.78;45.72;;
73638;Laerm;53743;51.100;5.874;2024-02-26T05:25:49;40.35;32.71;51.15;;
73638;Laerm;53743;51.100;5.874;2024-02-26T05:26:53;34.38;32.70;40.37;;
73638;Laerm;53743;51.100;5.874;2024-02-26T05:27:55;37.62;32.69;51.80;;
73638;Laerm;53743;51.100;5.874;2024-02-26T05:28:56;44.27;33.35;53.56;;
73638;Laerm;53743;51.100;5.874;2024-02-26T05:30:00;41.26;33.06;49.57;;
73638;Laerm;53743;51.100;5.874;2024-02-26T05:31:01;34.51;32.78;38.76;;
73638;Laerm;53743;51.100;5.874;2024-02-26T05:32:05;43.25;32.18;56.50;;
73638;Laerm;53743;51.100;5.874;2024-02-26T05:33:06;41.25;32.77;56.90;;
73638;Laerm;53743;51.100;5.874;2024-02-26T05:34:08;43.88;33.45;54.26;;
73638;Laerm;53743;51.100;5.874;2024-02-26T05:35:10;42.39;32.88;53.63;;
73638;Laerm;53743;51.100;5.874;2024-02-26T05:36:18;41.38;32.58;53.69;;
73638;Laerm;53743;51.100;5.874;2024-02-26T05:37:21;43.94;32.35;56.68;;
73638;Laerm;53743;51.100;5.874;2024-02-26T05:38:23;40.89;32.93;52.69;;
73638;Laerm;53743;51.100;5.874;2024-02-26T05:39:25;39.84;33.05;51.91;;
73638;Laerm;53743;51.100;5.874;2024-02-26T05:40:26;43.35;33.30;54.61;;
73638;Laerm;53743;51.100;5.874;2024-02-26T05:41:28;40.68;32.96;51.88;;
73638;Laerm;53743;51.100;5.874;2024-02-26T05:42:30;43.18;34.27;52.79;;
73638;Laerm;53743;51.100;5.874;2024-02-26T05:43:32;39.05;32.62;53.99;;
73638;Laerm;53743;51.100;5.874;2024-02-26T05:44:33;42.80;32.84;54.77;;
73638;Laerm;53743;51.100;5.874;2024-02-26T05:45:35;45.84;34.18;55.37;;
73638;Laerm;53743;51.100;5.874;2024-02-26T05:46:36;43.08;33.49;57.46;;